EDT,Max TemperatureF,Mean TemperatureF,Min TemperatureF,Max Dew PointF,MeanDew PointF,Min DewpointF,Max Humidity, Mean Humidity, Min Humidity, Max Sea Level PressureIn, Mean Sea Level PressureIn, Min Sea Level PressureIn, Max VisibilityMiles, Mean VisibilityMiles, Min VisibilityMiles, Max Wind SpeedMPH, Mean Wind SpeedMPH, Max Gust SpeedMPH,PrecipitationIn, CloudCover, Events, WindDirDegrees
2014-5-1,71,58,44,55,48,43,100,79,38,29.96,29.80,29.72,10,8,0,16,10,23,0.12,6,,343
2014-5-2,59,49,39,43,37,34,93,61,39,29.86,29.78,29.74,10,10,6,15,6,23,0.00,6,,270
2014-5-3,60,50,39,46,40,34,100,68,39,29.88,29.81,29.75,10,10,8,13,4,20,0.10,6,,216
2014-5-4,55,48,41,45,33,21,100,60,26,29.81,29.73,29.66,10,10,6,28,11,43,0.01,3,,281
2014-5-5,60,51,42,36,29,21,76,48,22,29.94,29.89,29.82,10,10,10,25,15,32,0.00,3,,309
2014-5-6,59,50,41,34,28,25,61,43,29,30.11,29.98,29.91,10,10,10,20,8,29,0.00,3,,321
2014-5-7,66,50,33,34,28,21,81,44,19,30.25,30.18,30.12,10,10,10,10,4,,0.00,0,,273
2014-5-8,64,54,44,55,49,34,100,84,54,30.19,30.15,30.10,10,9,2,12,2,,0.13,5,Thunderstorm,157
2014-5-9,59,55,51,57,55,50,100,97,94,30.20,30.12,30.02,10,4,0,13,6,,0.88,8,Thunderstorm,131
2014-5-10,77,66,55,64,57,52,100,82,44,30.00,29.91,29.85,10,6,0,22,5,25,0.02,5,,273
2014-5-11,71,60,50,54,37,30,77,43,22,30.12,30.05,29.92,10,10,10,18,9,26,0.00,1,,290
2014-5-12,77,60,44,55,46,36,81,57,28,30.16,30.13,30.08,10,10,10,10,3,,0.00,3,,287
2014-5-13,73,63,53,57,50,43,100,66,41,30.27,30.18,30.08,10,10,2,15,6,20,0.00,1,,129
2014-5-14,73,60,48,59,50,39,88,68,53,30.31,30.26,30.21,10,10,7,15,6,21,0.00,4,,152
2014-5-15,71,64,57,66,61,55,100,95,73,30.27,30.18,30.09,10,7,0,20,10,29,0.02,8,,131
2014-5-16,64,56,48,64,59,46,100,95,88,30.08,29.92,29.82,10,8,2,25,16,36,0.01,8,,163
2014-5-17,59,50,41,48,41,36,100,73,44,30.15,30.02,29.89,10,10,10,16,8,22,0.00,3,,304
2014-5-18,57,47,37,41,35,27,100,64,38,30.21,30.18,30.14,10,10,10,17,4,24,0.00,2,,318
2014-5-19,64,50,37,39,34,27,81,54,32,30.23,30.17,30.12,10,10,10,20,8,32,0.00,1,,297
2014-5-20,71,58,44,45,38,34,81,49,25,30.18,30.10,30.03,10,10,10,16,7,24,0.00,1,,310
2014-5-21,68,60,51,57,49,39,100,71,48,30.05,29.98,29.91,10,9,1,10,4,,0.01,6,,243
2014-5-22,73,63,53,61,56,52,100,90,57,29.91,29.86,29.78,10,7,1,10,2,17,0.01,6,Thunderstorm,188
2014-5-23,62,56,50,54,51,48,100,86,68,30.00,29.93,29.87,10,9,0,15,6,21,0.00,6,,301
2014-5-24,66,58,51,55,51,48,100,87,56,30.12,30.05,29.97,10,9,4,13,6,22,0.02,6,,330
2014-5-25,73,58,44,52,46,43,100,66,33,30.15,30.11,30.08,10,10,0,15,5,23,0.00,1,,295
2014-5-26,78,64,51,54,50,46,94,58,34,30.11,30.03,29.95,10,10,8,17,5,24,0.00,1,,274
2014-5-27,82,68,55,64,57,48,88,65,42,29.96,29.90,29.83,10,10,9,14,6,22,0.01,1,,274
2014-5-28,66,57,48,64,55,45,100,92,82,30.19,29.98,29.84,10,9,5,17,5,22,0.00,6,,92
2014-5-29,66,55,44,48,44,37,93,68,45,30.23,30.18,30.13,10,10,3,10,7,,0.00,6,,139
2014-5-30,71,60,48,50,47,43,94,66,38,30.15,30.11,30.05,10,10,5,18,7,26,0.00,3,,327
2014-5-31,66,57,48,46,44,39,93,65,40,30.32,30.22,30.15,10,10,10,16,5,23,0.00,2,,3